Time;durP1;ratioP1;P1;durP2;ratioP2;P2;SDS_P1;SDS_P2;PMS_P1;PMS_P2;Temp;Humidity;BMP_temperature;BMP_pressure;BME280_temperature;BME280_humidity;BME280_pressure;Samples;Min_cycle;Max_cycle;Signal;HPM_P1;HPM_P2
2021/11/22 00:00:32;;;;;;;2.22;1.73;;;;;;;3.32;69.52;97644.16;5021157;28;20052;-61
2021/11/22 00:02:59;;;;;;;2.95;1.80;;;;;;;3.29;69.56;97641.72;5011543;28;20528;-61
2021/11/22 00:05:26;;;;;;;2.67;1.80;;;;;;;3.24;69.55;97638.50;5022719;28;20075;-61
2021/11/22 00:07:52;;;;;;;4.00;1.90;;;;;;;3.29;69.40;97641.72;5020162;28;20048;-61
2021/11/22 00:10:18;;;;;;;3.00;1.98;;;;;;;3.22;69.78;97630.84;5028818;28;20505;-62
2021/11/22 00:12:44;;;;;;;3.58;1.77;;;;;;;3.28;69.48;97640.88;5010985;28;20116;-62
2021/11/22 00:15:12;;;;;;;4.78;2.03;;;;;;;3.29;69.57;97649.41;5010720;28;20042;-63
2021/11/22 00:17:39;;;;;;;3.50;2.00;;;;;;;3.27;69.72;97651.19;5013383;28;20048;-61
2021/11/22 00:20:09;;;;;;;3.15;2.10;;;;;;;3.27;69.82;97648.63;5034746;28;20513;-62
2021/11/22 00:22:34;;;;;;;;;;;;;;;3.26;69.39;97659.78;5020345;28;20041;-61
2021/11/22 00:25:01;;;;;;;3.83;2.10;;;;;;;3.27;69.50;97658.91;5013938;28;19917;-61
2021/11/22 00:27:26;;;;;;;3.38;2.10;;;;;;;3.21;69.53;97667.66;5028174;28;20040;-61
2021/11/22 00:29:54;;;;;;;3.90;2.40;;;;;;;3.22;69.66;97671.91;5025856;28;20041;-62
2021/11/22 00:32:52;;;;;;;3.10;2.20;;;;;;;3.24;69.94;97672.69;5022857;28;20044;-63
2021/11/22 00:35:38;;;;;;;2.72;2.15;;;;;;;3.22;69.84;97679.63;5002016;28;20049;-60
2021/11/22 00:38:07;;;;;;;5.80;2.67;;;;;;;3.23;70.30;97671.03;5029032;28;20053;-62
2021/11/22 00:40:35;;;;;;;3.00;1.95;;;;;;;3.25;69.97;97670.94;5036770;28;20040;-61
2021/11/22 00:43:02;;;;;;;2.67;2.08;;;;;;;3.23;70.40;97681.28;5018805;28;20915;-62
2021/11/22 00:45:28;;;;;;;3.40;2.13;;;;;;;3.27;70.16;97690.56;5011732;28;20048;-61
2021/11/22 00:47:55;;;;;;;3.10;2.10;;;;;;;3.28;70.30;97688.81;5035221;28;20072;-61
2021/11/22 00:50:21;;;;;;;3.63;2.28;;;;;;;3.21;70.06;97682.22;5039424;28;20052;-62
2021/11/22 00:52:48;;;;;;;3.35;1.88;;;;;;;3.23;69.73;97685.59;5042040;28;20037;-62
2021/11/22 00:55:14;;;;;;;3.97;1.67;;;;;;;3.01;69.55;97677.84;5017188;28;20053;-62
2021/11/22 00:57:41;;;;;;;2.67;1.70;;;;;;;3.05;69.71;97684.53;5037511;28;20053;-59
2021/11/22 01:00:09;;;;;;;2.65;1.60;;;;;;;3.07;69.73;97682.75;5022439;28;20421;-62
2021/11/22 01:02:35;;;;;;;2.75;1.90;;;;;;;3.06;70.01;97680.22;5031325;28;20036;-62
2021/11/22 01:05:04;;;;;;;2.95;1.63;;;;;;;2.97;69.92;97683.97;5029916;28;20048;-62
2021/11/22 01:07:29;;;;;;;2.30;1.75;;;;;;;2.95;70.32;97684.03;5025948;28;20041;-61
2021/11/22 01:09:55;;;;;;;2.15;1.40;;;;;;;3.04;69.75;97692.28;5032361;28;20069;-62
2021/11/22 01:12:21;;;;;;;2.92;1.60;;;;;;;2.77;69.38;97668.47;5042661;28;20558;-61
2021/11/22 01:14:47;;;;;;;2.67;1.60;;;;;;;2.92;69.29;97681.56;5049172;28;20041;-61
2021/11/22 01:17:15;;;;;;;3.13;1.80;;;;;;;2.93;69.48;97687.56;5045554;28;20051;-62
2021/11/22 01:19:41;;;;;;;2.10;1.42;;;;;;;2.96;69.57;97698.53;5053216;28;20402;-62
2021/11/22 01:22:07;;;;;;;2.83;1.52;;;;;;;2.89;69.44;97680.84;5010588;28;20049;-63
2021/11/22 01:24:34;;;;;;;2.17;1.45;;;;;;;2.97;69.32;97689.09;5018053;28;20592;-62
2021/11/22 01:27:00;;;;;;;2.20;1.40;;;;;;;2.95;69.23;97696.84;5027577;28;20048;-62
2021/11/22 01:29:26;;;;;;;2.78;1.48;;;;;;;2.86;69.43;97686.91;5017573;28;20046;-62
2021/11/22 01:31:52;;;;;;;2.30;1.30;;;;;;;2.94;69.36;97708.00;5015275;28;20049;-63
2021/11/22 01:34:17;;;;;;;2.35;1.70;;;;;;;3.00;69.13;97704.38;5030609;28;20038;-61
2021/11/22 01:36:43;;;;;;;2.70;1.42;;;;;;;3.05;68.98;97697.34;5019792;28;20187;-62
2021/11/22 01:39:09;;;;;;;2.10;1.38;;;;;;;2.97;68.89;97696.81;5021287;28;20095;-62
2021/11/22 01:41:35;;;;;;;1.92;1.42;;;;;;;2.77;69.05;97683.84;5027331;28;20053;-61
2021/11/22 01:44:01;;;;;;;1.90;1.38;;;;;;;2.87;68.92;97692.91;4998987;28;20046;-63
2021/11/22 01:46:27;;;;;;;3.25;1.15;;;;;;;2.83;68.96;97702.41;5019528;28;20041;-62
2021/11/22 01:48:56;;;;;;;1.13;0.85;;;;;;;2.76;69.23;97706.09;5014228;28;20147;-63
2021/11/22 01:51:22;;;;;;;2.47;1.10;;;;;;;2.68;69.28;97702.94;5026898;28;20051;-61
2021/11/22 01:53:48;;;;;;;2.08;1.10;;;;;;;2.64;69.63;97711.66;5021505;28;20060;-62
2021/11/22 01:56:14;;;;;;;3.72;1.60;;;;;;;2.64;70.05;97714.22;5030824;28;20089;-61
2021/11/22 01:58:40;;;;;;;1.60;1.40;;;;;;;2.71;70.18;97714.84;5026806;28;20046;-63
2021/11/22 02:01:06;;;;;;;2.95;1.60;;;;;;;2.61;70.75;97727.16;5019362;28;20048;-62
2021/11/22 02:03:32;;;;;;;1.77;1.05;;;;;;;2.46;71.47;97722.53;5023819;28;20048;-62
2021/11/22 02:05:58;;;;;;;2.60;1.50;;;;;;;2.40;72.02;97730.44;5023236;28;20162;-61
2021/11/22 02:08:24;;;;;;;2.67;1.83;;;;;;;2.34;72.26;97728.91;5020687;28;20532;-62
2021/11/22 02:10:51;;;;;;;2.45;1.45;;;;;;;2.38;72.19;97737.31;5026360;28;20040;-61
2021/11/22 02:13:18;;;;;;;2.80;1.42;;;;;;;2.36;72.38;97731.41;5030502;28;20118;-62
2021/11/22 02:15:44;;;;;;;2.80;1.90;;;;;;;2.36;72.57;97739.09;5030219;28;20052;-62
2021/11/22 02:18:10;;;;;;;2.58;1.50;;;;;;;2.47;72.31;97737.84;5043054;28;20032;-61
2021/11/22 02:20:36;;;;;;;2.88;1.90;;;;;;;2.62;72.06;97743.38;5036651;28;20045;-62
2021/11/22 02:23:05;;;;;;;3.13;1.67;;;;;;;2.55;72.15;97746.16;5028541;28;20042;-63
2021/11/22 02:25:34;;;;;;;3.00;1.65;;;;;;;2.51;72.30;97747.13;5030348;28;20096;-61
2021/11/22 02:28:00;;;;;;;2.70;1.73;;;;;;;2.56;72.32;97744.44;5025092;28;20041;-61
2021/11/22 02:30:30;;;;;;;2.85;1.80;;;;;;;2.59;71.97;97748.59;5026050;28;20036;-62
2021/11/22 02:33:01;;;;;;;2.75;1.58;;;;;;;2.67;71.85;97760.25;5024103;28;20467;-62
2021/11/22 02:35:28;;;;;;;1.48;1.08;;;;;;;2.70;71.31;97755.03;5018749;28;20042;-63
2021/11/22 02:37:55;;;;;;;3.88;1.52;;;;;;;2.62;71.56;97754.44;5036751;28;20073;-63
2021/11/22 02:40:21;;;;;;;2.65;1.45;;;;;;;2.46;71.41;97730.22;5043971;28;20038;-62
2021/11/22 02:42:47;;;;;;;1.67;1.30;;;;;;;2.70;71.27;97759.34;5043753;28;20041;-60
2021/11/22 02:45:15;;;;;;;2.40;1.70;;;;;;;2.67;71.22;97762.81;5013190;28;20091;-62
2021/11/22 02:47:41;;;;;;;2.45;1.60;;;;;;;2.72;71.30;97770.41;5014900;28;20056;-62
2021/11/22 02:50:11;;;;;;;1.92;1.30;;;;;;;2.67;71.20;97780.78;5016713;28;20127;-62
2021/11/22 02:52:37;;;;;;;6.07;2.38;;;;;;;2.62;71.13;97769.03;5027541;28;20131;-62
2021/11/22 02:55:04;;;;;;;2.10;1.48;;;;;;;2.53;71.33;97778.69;5014209;28;20036;-63
2021/11/22 02:57:30;;;;;;;1.75;1.30;;;;;;;2.46;71.71;97790.03;5013052;28;20084;-63
2021/11/22 02:59:56;;;;;;;2.83;1.52;;;;;;;2.53;72.22;97791.50;5042909;28;20085;-57
2021/11/22 03:02:22;;;;;;;2.05;1.52;;;;;;;2.61;72.31;97795.56;5018386;28;20477;-61
2021/11/22 03:04:48;;;;;;;2.17;1.50;;;;;;;2.54;72.42;97788.06;5018740;28;20042;-61
2021/11/22 03:07:14;;;;;;;2.22;1.20;;;;;;;2.66;72.46;97809.91;5019823;28;20049;-63
2021/11/22 03:09:40;;;;;;;2.05;1.00;;;;;;;2.59;70.81;97797.34;5016862;28;20080;-62
2021/11/22 03:12:10;;;;;;;2.10;1.10;;;;;;;2.58;70.01;97805.91;5031484;28;20124;-61
2021/11/22 03:14:36;;;;;;;2.35;1.05;;;;;;;2.62;69.77;97813.44;5011742;28;20038;-61
2021/11/22 03:17:02;;;;;;;1.42;1.10;;;;;;;2.59;69.44;97807.59;5012781;28;20041;-62
2021/11/22 03:19:28;;;;;;;2.15;1.30;;;;;;;2.59;69.18;97825.53;5019789;28;20119;-62
2021/11/22 03:21:55;;;;;;;1.85;1.15;;;;;;;2.62;69.35;97816.00;5027230;28;20065;-62
2021/11/22 03:24:21;;;;;;;2.20;1.40;;;;;;;2.56;69.35;97811.91;5021387;28;20037;-58
2021/11/22 03:26:47;;;;;;;1.00;0.90;;;;;;;2.56;68.75;97817.03;5050760;28;20040;-62
2021/11/22 03:29:13;;;;;;;1.90;1.38;;;;;;;2.39;68.12;97834.72;5051967;28;20120;-62
2021/11/22 03:31:39;;;;;;;1.42;1.13;;;;;;;2.36;68.30;97832.22;5035375;28;20042;-61
2021/11/22 03:34:07;;;;;;;1.88;1.40;;;;;;;2.42;68.42;97839.75;5032116;28;20036;-62
2021/11/22 03:36:34;;;;;;;2.50;1.30;;;;;;;2.29;68.18;97823.06;5039472;28;20062;-63
2021/11/22 03:39:01;;;;;;;1.45;1.05;;;;;;;2.50;68.29;97844.63;5038991;28;20512;-63
2021/11/22 03:41:29;;;;;;;2.35;1.42;;;;;;;2.60;68.35;97853.72;5032208;28;20037;-63
2021/11/22 03:43:58;;;;;;;2.13;1.25;;;;;;;2.48;68.26;97839.56;5020918;28;20045;-62
2021/11/22 03:46:25;;;;;;;3.60;1.98;;;;;;;2.62;68.34;97859.63;5050587;28;20037;-61
2021/11/22 03:48:51;;;;;;;2.90;1.40;;;;;;;2.68;68.42;97867.13;5026446;28;20045;-63
2021/11/22 03:51:17;;;;;;;1.90;1.13;;;;;;;2.73;68.21;97860.13;5038352;28;20044;-61
2021/11/22 03:53:44;;;;;;;1.38;1.10;;;;;;;2.74;68.24;97874.63;5021085;28;20604;-63
2021/11/22 03:56:10;;;;;;;1.63;1.20;;;;;;;2.70;68.36;97875.63;5027516;28;20045;-63
2021/11/22 03:58:36;;;;;;;2.55;1.73;;;;;;;2.63;68.58;97866.44;5048652;28;20037;-63
2021/11/22 04:01:03;;;;;;;1.98;1.20;;;;;;;2.65;68.58;97856.97;5030427;28;20054;-62
2021/11/22 04:03:29;;;;;;;2.92;1.63;;;;;;;2.85;68.50;97887.13;5051550;28;20114;-63
2021/11/22 04:05:55;;;;;;;2.13;1.20;;;;;;;2.85;68.53;97887.97;5044380;28;20045;-62
2021/11/22 04:08:21;;;;;;;1.65;1.30;;;;;;;2.77;68.66;97887.38;5034042;28;20484;-64
2021/11/22 04:10:47;;;;;;;3.25;1.55;;;;;;;2.75;68.55;97889.13;5036337;28;20045;-62
2021/11/22 04:13:13;;;;;;;1.42;1.10;;;;;;;2.84;68.36;97893.97;5020594;28;20410;-57
2021/11/22 04:15:39;;;;;;;1.90;1.30;;;;;;;2.79;68.02;97898.41;5024572;28;20535;-56
2021/11/22 04:18:07;;;;;;;3.58;1.42;;;;;;;2.77;68.25;97905.34;5032571;28;20048;-61
2021/11/22 04:20:33;;;;;;;1.80;1.40;;;;;;;2.83;68.33;97915.38;5032662;28;20051;-62
2021/11/22 04:23:00;;;;;;;2.97;1.50;;;;;;;2.88;68.09;97923.78;5039537;28;20240;-62
2021/11/22 04:25:26;;;;;;;2.78;1.33;;;;;;;2.82;67.88;97918.84;5023005;28;20045;-64
2021/11/22 04:27:52;;;;;;;2.03;1.40;;;;;;;2.77;67.85;97923.28;5029877;28;20532;-63
2021/11/22 04:30:18;;;;;;;2.85;1.60;;;;;;;2.76;67.89;97934.44;5033268;28;20056;-62
2021/11/22 04:32:44;;;;;;;2.92;1.60;;;;;;;2.71;68.23;97928.63;5030502;28;20045;-62
2021/11/22 04:35:12;;;;;;;2.22;1.50;;;;;;;2.79;68.31;97942.03;5030974;28;20508;-62
2021/11/22 04:37:39;;;;;;;2.95;1.52;;;;;;;2.75;67.83;97945.59;5020240;28;20099;-63
2021/11/22 04:40:07;;;;;;;2.20;1.55;;;;;;;2.73;67.74;97949.91;5028059;28;20062;-60
2021/11/22 04:42:33;;;;;;;2.03;1.50;;;;;;;2.77;67.37;97964.34;5024891;28;20105;-61
2021/11/22 04:44:59;;;;;;;3.00;1.38;;;;;;;2.77;67.46;97972.03;5026961;28;20048;-59
2021/11/22 04:47:25;;;;;;;5.90;1.35;;;;;;;2.64;66.86;97959.63;5027092;28;20041;-61
2021/11/22 04:49:52;;;;;;;2.38;1.33;;;;;;;2.73;66.62;97979.84;5026789;28;20041;-60
2021/11/22 04:52:19;;;;;;;3.28;0.90;;;;;;;2.77;66.70;97982.31;5031665;28;20053;-62
2021/11/22 04:54:46;;;;;;;2.08;1.25;;;;;;;2.81;66.38;97976.19;5031647;28;20045;-62
2021/11/22 04:57:13;;;;;;;2.08;1.10;;;;;;;2.74;66.01;97971.28;5009449;28;20064;-62
2021/11/22 04:59:40;;;;;;;1.33;1.05;;;;;;;2.80;65.08;97989.91;5044340;28;20501;-61
2021/11/22 05:02:07;;;;;;;3.38;1.58;;;;;;;2.82;65.35;97995.84;5028439;28;20052;-56
2021/11/22 05:04:35;;;;;;;2.33;1.48;;;;;;;2.83;65.25;98002.63;5028429;28;20063;-56
2021/11/22 05:07:04;;;;;;;1.80;1.30;;;;;;;2.80;64.97;98004.44;5031658;28;20417;-56
